sensor_id;sensor_type;location;lat;lon;timestamp;P1;durP1;ratioP1;P2;durP2;ratioP2
24145;SDS011;12308;50.948;4.706;2022-09-20T00:01:13;9.43;;;2.80;;
24145;SDS011;12308;50.948;4.706;2022-09-20T00:03:41;9.27;;;2.80;;
24145;SDS011;12308;50.948;4.706;2022-09-20T00:06:10;11.57;;;4.15;;
24145;SDS011;12308;50.948;4.706;2022-09-20T00:08:38;12.43;;;4.38;;
24145;SDS011;12308;50.948;4.706;2022-09-20T00:11:05;13.18;;;3.47;;
24145;SDS011;12308;50.948;4.706;2022-09-20T00:13:34;11.27;;;3.60;;
24145;SDS011;12308;50.948;4.706;2022-09-20T00:16:09;10.43;;;5.45;;
24145;SDS011;12308;50.948;4.706;2022-09-20T00:18:40;12.50;;;4.85;;
24145;SDS011;12308;50.948;4.706;2022-09-20T00:21:06;9.45;;;4.28;;
24145;SDS011;12308;50.948;4.706;2022-09-20T00:23:36;7.93;;;3.75;;
24145;SDS011;12308;50.948;4.706;2022-09-20T00:26:02;10.30;;;3.10;;
24145;SDS011;12308;50.948;4.706;2022-09-20T00:28:29;12.65;;;3.05;;
24145;SDS011;12308;50.948;4.706;2022-09-20T00:30:56;5.63;;;2.40;;
24145;SDS011;12308;50.948;4.706;2022-09-20T00:33:22;13.82;;;2.60;;
24145;SDS011;12308;50.948;4.706;2022-09-20T00:36:09;7.68;;;2.38;;
24145;SDS011;12308;50.948;4.706;2022-09-20T00:38:34;5.95;;;2.17;;
24145;SDS011;12308;50.948;4.706;2022-09-20T00:41:00;6.75;;;2.20;;
24145;SDS011;12308;50.948;4.706;2022-09-20T00:43:44;10.23;;;2.30;;
24145;SDS011;12308;50.948;4.706;2022-09-20T00:46:25;7.32;;;2.45;;
24145;SDS011;12308;50.948;4.706;2022-09-20T00:51:39;9.15;;;2.20;;
24145;SDS011;12308;50.948;4.706;2022-09-20T00:54:07;8.88;;;1.80;;
24145;SDS011;12308;50.948;4.706;2022-09-20T00:56:37;8.70;;;2.00;;
24145;SDS011;12308;50.948;4.706;2022-09-20T00:59:21;8.35;;;2.05;;
24145;SDS011;12308;50.948;4.706;2022-09-20T01:01:51;6.82;;;2.05;;
24145;SDS011;12308;50.948;4.706;2022-09-20T01:04:22;10.45;;;1.95;;
24145;SDS011;12308;50.948;4.706;2022-09-20T01:06:51;7.82;;;2.17;;
24145;SDS011;12308;50.948;4.706;2022-09-20T01:09:20;5.82;;;2.10;;
24145;SDS011;12308;50.948;4.706;2022-09-20T01:11:46;7.32;;;1.90;;
24145;SDS011;12308;50.948;4.706;2022-09-20T01:14:14;6.47;;;2.03;;
24145;SDS011;12308;50.948;4.706;2022-09-20T01:16:43;7.07;;;2.75;;
24145;SDS011;12308;50.948;4.706;2022-09-20T01:21:57;8.88;;;2.20;;
24145;SDS011;12308;50.948;4.706;2022-09-20T01:32:14;8.27;;;2.20;;
24145;SDS011;12308;50.948;4.706;2022-09-20T01:34:49;11.77;;;2.42;;
24145;SDS011;12308;50.948;4.706;2022-09-20T01:40:11;7.18;;;2.38;;
24145;SDS011;12308;50.948;4.706;2022-09-20T01:42:51;7.90;;;2.10;;
24145;SDS011;12308;50.948;4.706;2022-09-20T01:45:25;5.00;;;2.30;;
24145;SDS011;12308;50.948;4.706;2022-09-20T01:59:41;6.53;;;2.35;;
24145;SDS011;12308;50.948;4.706;2022-09-20T02:22:05;8.00;;;2.28;;
24145;SDS011;12308;50.948;4.706;2022-09-20T02:38:15;7.20;;;2.80;;
24145;SDS011;12308;50.948;4.706;2022-09-20T02:52:06;8.57;;;2.80;;
24145;SDS011;12308;50.948;4.706;2022-09-20T02:54:52;9.47;;;2.70;;
24145;SDS011;12308;50.948;4.706;2022-09-20T03:00:41;9.68;;;2.95;;
24145;SDS011;12308;50.948;4.706;2022-09-20T03:08:46;10.32;;;3.40;;
24145;SDS011;12308;50.948;4.706;2022-09-20T03:19:14;14.90;;;3.90;;
24145;SDS011;12308;50.948;4.706;2022-09-20T03:21:59;12.10;;;3.80;;
24145;SDS011;12308;50.948;4.706;2022-09-20T03:24:43;13.23;;;3.35;;
24145;SDS011;12308;50.948;4.706;2022-09-20T03:27:18;9.30;;;3.08;;
24145;SDS011;12308;50.948;4.706;2022-09-20T03:54:40;17.17;;;3.80;;
24145;SDS011;12308;50.948;4.706;2022-09-20T04:20:44;15.25;;;4.40;;
24145;SDS011;12308;50.948;4.706;2022-09-20T04:22:53;14.98;;;4.50;;
24145;SDS011;12308;50.948;4.706;2022-09-20T04:25:28;12.10;;;4.90;;
24145;SDS011;12308;50.948;4.706;2022-09-20T04:28:05;17.48;;;5.10;;
24145;SDS011;12308;50.948;4.706;2022-09-20T04:30:39;14.15;;;5.97;;
24145;SDS011;12308;50.948;4.706;2022-09-20T04:33:14;20.50;;;4.95;;
24145;SDS011;12308;50.948;4.706;2022-09-20T04:47:24;16.73;;;7.07;;
24145;SDS011;12308;50.948;4.706;2022-09-20T04:58:21;23.15;;;6.95;;
24145;SDS011;12308;50.948;4.706;2022-09-20T05:23:24;15.65;;;8.27;;
24145;SDS011;12308;50.948;4.706;2022-09-20T05:26:14;19.95;;;9.80;;
24145;SDS011;12308;50.948;4.706;2022-09-20T05:31:33;16.65;;;9.25;;
24145;SDS011;12308;50.948;4.706;2022-09-20T05:54:06;23.55;;;12.52;;
24145;SDS011;12308;50.948;4.706;2022-09-20T06:02:19;28.52;;;14.95;;
24145;SDS011;12308;50.948;4.706;2022-09-20T06:05:02;22.65;;;14.05;;
24145;SDS011;12308;50.948;4.706;2022-09-20T06:07:51;29.83;;;15.07;;
24145;SDS011;12308;50.948;4.706;2022-09-20T06:15:53;23.70;;;13.05;;
24145;SDS011;12308;50.948;4.706;2022-09-20T06:18:27;23.90;;;13.95;;
24145;SDS011;12308;50.948;4.706;2022-09-20T06:23:48;31.65;;;14.27;;
24145;SDS011;12308;50.948;4.706;2022-09-20T06:26:16;23.30;;;13.25;;
24145;SDS011;12308;50.948;4.706;2022-09-20T06:29:02;25.42;;;12.52;;
24145;SDS011;12308;50.948;4.706;2022-09-20T06:31:30;18.00;;;12.07;;
24145;SDS011;12308;50.948;4.706;2022-09-20T06:33:57;22.45;;;12.07;;
24145;SDS011;12308;50.948;4.706;2022-09-20T06:36:38;21.05;;;11.65;;
24145;SDS011;12308;50.948;4.706;2022-09-20T06:42:23;25.63;;;13.32;;
24145;SDS011;12308;50.948;4.706;2022-09-20T06:44:50;25.10;;;13.02;;
24145;SDS011;12308;50.948;4.706;2022-09-20T06:47:15;19.98;;;11.40;;
24145;SDS011;12308;50.948;4.706;2022-09-20T06:49:42;19.00;;;10.75;;
24145;SDS011;12308;50.948;4.706;2022-09-20T06:52:14;22.30;;;11.20;;
24145;SDS011;12308;50.948;4.706;2022-09-20T06:54:45;24.30;;;11.80;;
24145;SDS011;12308;50.948;4.706;2022-09-20T06:57:20;23.02;;;11.45;;
24145;SDS011;12308;50.948;4.706;2022-09-20T06:59:48;19.30;;;10.25;;
24145;SDS011;12308;50.948;4.706;2022-09-20T07:02:14;18.00;;;10.48;;
24145;SDS011;12308;50.948;4.706;2022-09-20T07:04:39;20.27;;;10.18;;
24145;SDS011;12308;50.948;4.706;2022-09-20T07:07:06;20.33;;;9.85;;
24145;SDS011;12308;50.948;4.706;2022-09-20T07:09:32;21.55;;;9.68;;
24145;SDS011;12308;50.948;4.706;2022-09-20T07:11:58;18.50;;;9.00;;
24145;SDS011;12308;50.948;4.706;2022-09-20T07:14:25;18.00;;;9.38;;
24145;SDS011;12308;50.948;4.706;2022-09-20T07:16:52;25.40;;;8.60;;
24145;SDS011;12308;50.948;4.706;2022-09-20T07:19:18;21.42;;;9.13;;
24145;SDS011;12308;50.948;4.706;2022-09-20T07:21:44;21.33;;;8.93;;
24145;SDS011;12308;50.948;4.706;2022-09-20T07:24:10;17.48;;;8.57;;
24145;SDS011;12308;50.948;4.706;2022-09-20T07:26:39;19.15;;;8.20;;
24145;SDS011;12308;50.948;4.706;2022-09-20T07:29:18;16.70;;;7.63;;
24145;SDS011;12308;50.948;4.706;2022-09-20T07:31:44;17.83;;;7.72;;
24145;SDS011;12308;50.948;4.706;2022-09-20T07:34:09;14.05;;;8.02;;
24145;SDS011;12308;50.948;4.706;2022-09-20T07:36:35;16.02;;;7.57;;
24145;SDS011;12308;50.948;4.706;2022-09-20T07:39:01;17.50;;;8.48;;
24145;SDS011;12308;50.948;4.706;2022-09-20T07:41:27;14.07;;;8.00;;
24145;SDS011;12308;50.948;4.706;2022-09-20T07:43:56;21.20;;;8.88;;
24145;SDS011;12308;50.948;4.706;2022-09-20T07:46:42;23.33;;;9.48;;
24145;SDS011;12308;50.948;4.706;2022-09-20T07:49:09;26.42;;;9.85;;
24145;SDS011;12308;50.948;4.706;2022-09-20T07:51:35;29.08;;;10.40;;
24145;SDS011;12308;50.948;4.706;2022-09-20T07:54:00;18.75;;;8.65;;
24145;SDS011;12308;50.948;4.706;2022-09-20T07:56:26;26.90;;;8.75;;
24145;SDS011;12308;50.948;4.706;2022-09-20T07:58:52;16.05;;;8.80;;
24145;SDS011;12308;50.948;4.706;2022-09-20T08:01:17;21.38;;;9.00;;
24145;SDS011;12308;50.948;4.706;2022-09-20T08:03:44;17.08;;;8.73;;
24145;SDS011;12308;50.948;4.706;2022-09-20T08:06:11;19.02;;;7.95;;
24145;SDS011;12308;50.948;4.706;2022-09-20T08:08:40;16.70;;;7.93;;
24145;SDS011;12308;50.948;4.706;2022-09-20T08:11:07;15.85;;;8.25;;
24145;SDS011;12308;50.948;4.706;2022-09-20T08:13:35;17.38;;;8.00;;
24145;SDS011;12308;50.948;4.706;2022-09-20T08:16:03;15.70;;;7.07;;
24145;SDS011;12308;50.948;4.706;2022-09-20T08:18:31;13.85;;;7.00;;
24145;SDS011;12308;50.948;4.706;2022-09-20T08:21:02;20.50;;;7.30;;
24145;SDS011;12308;50.948;4.706;2022-09-20T08:23:38;15.27;;;7.85;;
24145;SDS011;12308;50.948;4.706;2022-09-20T08:26:08;14.20;;;6.90;;
24145;SDS011;12308;50.948;4.706;2022-09-20T08:28:36;21.00;;;8.00;;
24145;SDS011;12308;50.948;4.706;2022-09-20T08:31:03;22.98;;;7.68;;
24145;SDS011;12308;50.948;4.706;2022-09-20T08:33:30;17.42;;;7.55;;
24145;SDS011;12308;50.948;4.706;2022-09-20T08:35:57;17.85;;;7.38;;
24145;SDS011;12308;50.948;4.706;2022-09-20T08:38:23;20.63;;;7.05;;
24145;SDS011;12308;50.948;4.706;2022-09-20T08:40:53;14.85;;;7.20;;
24145;SDS011;12308;50.948;4.706;2022-09-20T08:45:52;16.67;;;7.65;;
24145;SDS011;12308;50.948;4.706;2022-09-20T08:48:19;16.55;;;7.05;;
24145;SDS011;12308;50.948;4.706;2022-09-20T08:50:46;15.80;;;7.90;;
24145;SDS011;12308;50.948;4.706;2022-09-20T08:53:13;20.65;;;7.20;;
24145;SDS011;12308;50.948;4.706;2022-09-20T08:55:39;21.30;;;8.63;;
24145;SDS011;12308;50.948;4.706;2022-09-20T08:58:08;20.17;;;6.95;;
24145;SDS011;12308;50.948;4.706;2022-09-20T09:00:36;16.55;;;7.30;;
24145;SDS011;12308;50.948;4.706;2022-09-20T09:03:04;22.90;;;7.68;;
24145;SDS011;12308;50.948;4.706;2022-09-20T09:08:03;20.35;;;7.85;;
24145;SDS011;12308;50.948;4.706;2022-09-20T09:10:37;19.42;;;7.00;;
24145;SDS011;12308;50.948;4.706;2022-09-20T09:13:04;17.88;;;6.82;;
24145;SDS011;12308;50.948;4.706;2022-09-20T09:15:32;14.35;;;6.95;;
24145;SDS011;12308;50.948;4.706;2022-09-20T09:18:00;16.50;;;7.60;;
24145;SDS011;12308;50.948;4.706;2022-09-20T09:20:26;18.88;;;7.82;;
24145;SDS011;12308;50.948;4.706;2022-09-20T09:22:59;15.20;;;7.32;;
24145;SDS011;12308;50.948;4.706;2022-09-20T09:25:39;21.15;;;7.40;;
24145;SDS011;12308;50.948;4.706;2022-09-20T09:30:35;18.00;;;7.22;;
24145;SDS011;12308;50.948;4.706;2022-09-20T09:35:55;18.23;;;5.38;;
24145;SDS011;12308;50.948;4.706;2022-09-20T09:38:28;18.63;;;5.55;;
24145;SDS011;12308;50.948;4.706;2022-09-20T09:41:00;13.02;;;5.30;;
24145;SDS011;12308;50.948;4.706;2022-09-20T09:43:30;16.80;;;5.53;;
24145;SDS011;12308;50.948;4.706;2022-09-20T09:46:18;14.98;;;5.25;;
24145;SDS011;12308;50.948;4.706;2022-09-20T09:54:26;17.90;;;4.70;;
24145;SDS011;12308;50.948;4.706;2022-09-20T09:59:56;15.20;;;3.88;;
24145;SDS011;12308;50.948;4.706;2022-09-20T10:08:13;12.13;;;3.50;;
24145;SDS011;12308;50.948;4.706;2022-09-20T10:10:55;14.60;;;4.15;;
24145;SDS011;12308;50.948;4.706;2022-09-20T10:25:52;8.73;;;3.28;;
24145;SDS011;12308;50.948;4.706;2022-09-20T10:37:13;11.10;;;3.45;;
24145;SDS011;12308;50.948;4.706;2022-09-20T10:47:49;11.48;;;3.22;;
24145;SDS011;12308;50.948;4.706;2022-09-20T10:50:19;10.95;;;3.22;;
24145;SDS011;12308;50.948;4.706;2022-09-20T10:55:40;10.43;;;2.80;;
24145;SDS011;12308;50.948;4.706;2022-09-20T11:06:17;13.55;;;3.53;;
24145;SDS011;12308;50.948;4.706;2022-09-20T11:08:49;7.00;;;2.38;;
24145;SDS011;12308;50.948;4.706;2022-09-20T11:11:24;9.32;;;2.63;;
24145;SDS011;12308;50.948;4.706;2022-09-20T11:14:14;12.93;;;2.75;;
24145;SDS011;12308;50.948;4.706;2022-09-20T11:16:47;9.60;;;2.67;;
24145;SDS011;12308;50.948;4.706;2022-09-20T11:19:37;11.18;;;3.22;;
24145;SDS011;12308;50.948;4.706;2022-09-20T11:22:43;11.02;;;2.38;;
24145;SDS011;12308;50.948;4.706;2022-09-20T11:28:00;22.42;;;7.25;;
24145;SDS011;12308;50.948;4.706;2022-09-20T11:30:33;6.97;;;1.38;;
24145;SDS011;12308;50.948;4.706;2022-09-20T11:33:12;6.47;;;1.30;;
24145;SDS011;12308;50.948;4.706;2022-09-20T11:35:41;6.97;;;1.42;;
24145;SDS011;12308;50.948;4.706;2022-09-20T11:41:31;12.73;;;1.95;;
24145;SDS011;12308;50.948;4.706;2022-09-20T11:43:50;9.30;;;2.03;;
24145;SDS011;12308;50.948;4.706;2022-09-20T11:46:20;9.52;;;1.80;;
24145;SDS011;12308;50.948;4.706;2022-09-20T11:48:57;4.80;;;1.55;;
24145;SDS011;12308;50.948;4.706;2022-09-20T11:54:20;10.02;;;2.35;;
24145;SDS011;12308;50.948;4.706;2022-09-20T11:57:07;14.43;;;3.58;;
24145;SDS011;12308;50.948;4.706;2022-09-20T11:59:40;4.60;;;1.30;;
24145;SDS011;12308;50.948;4.706;2022-09-20T12:02:42;6.45;;;1.63;;
24145;SDS011;12308;50.948;4.706;2022-09-20T12:04:59;8.90;;;2.00;;
24145;SDS011;12308;50.948;4.706;2022-09-20T12:07:37;8.93;;;2.13;;
24145;SDS011;12308;50.948;4.706;2022-09-20T12:10:26;6.10;;;1.58;;
24145;SDS011;12308;50.948;4.706;2022-09-20T12:12:58;7.85;;;1.90;;
24145;SDS011;12308;50.948;4.706;2022-09-20T12:15:37;15.52;;;4.20;;
24145;SDS011;12308;50.948;4.706;2022-09-20T12:28:48;18.77;;;2.03;;
24145;SDS011;12308;50.948;4.706;2022-09-20T12:39:19;4.13;;;1.30;;
24145;SDS011;12308;50.948;4.706;2022-09-20T12:41:56;7.13;;;1.60;;
24145;SDS011;12308;50.948;4.706;2022-09-20T12:47:20;11.05;;;1.70;;
24145;SDS011;12308;50.948;4.706;2022-09-20T12:49:48;10.27;;;1.30;;
24145;SDS011;12308;50.948;4.706;2022-09-20T12:52:35;7.75;;;1.50;;
24145;SDS011;12308;50.948;4.706;2022-09-20T13:00:37;9.10;;;2.03;;
24145;SDS011;12308;50.948;4.706;2022-09-20T13:08:11;10.05;;;1.65;;
24145;SDS011;12308;50.948;4.706;2022-09-20T13:10:43;7.70;;;1.23;;
24145;SDS011;12308;50.948;4.706;2022-09-20T13:19:18;8.50;;;1.35;;
24145;SDS011;12308;50.948;4.706;2022-09-20T13:24:22;10.00;;;1.63;;
24145;SDS011;12308;50.948;4.706;2022-09-20T13:26:49;7.15;;;1.73;;
24145;SDS011;12308;50.948;4.706;2022-09-20T13:29:36;5.13;;;1.33;;
24145;SDS011;12308;50.948;4.706;2022-09-20T13:35:14;5.28;;;1.58;;
24145;SDS011;12308;50.948;4.706;2022-09-20T13:37:44;7.68;;;1.60;;
24145;SDS011;12308;50.948;4.706;2022-09-20T13:40:17;7.55;;;1.85;;
24145;SDS011;12308;50.948;4.706;2022-09-20T13:42:49;6.88;;;1.55;;
24145;SDS011;12308;50.948;4.706;2022-09-20T13:45:16;8.35;;;1.55;;
24145;SDS011;12308;50.948;4.706;2022-09-20T13:47:49;4.68;;;1.70;;
24145;SDS011;12308;50.948;4.706;2022-09-20T13:52:51;6.35;;;1.88;;
24145;SDS011;12308;50.948;4.706;2022-09-20T13:58:04;7.60;;;2.30;;
24145;SDS011;12308;50.948;4.706;2022-09-20T14:00:32;11.32;;;2.67;;
24145;SDS011;12308;50.948;4.706;2022-09-20T14:03:02;8.25;;;2.42;;
24145;SDS011;12308;50.948;4.706;2022-09-20T14:05:29;6.88;;;2.13;;
24145;SDS011;12308;50.948;4.706;2022-09-20T14:07:56;10.32;;;2.50;;
24145;SDS011;12308;50.948;4.706;2022-09-20T14:10:28;10.82;;;3.22;;
24145;SDS011;12308;50.948;4.706;2022-09-20T14:12:59;12.98;;;3.58;;
24145;SDS011;12308;50.948;4.706;2022-09-20T14:15:35;11.75;;;3.28;;
24145;SDS011;12308;50.948;4.706;2022-09-20T14:18:02;6.55;;;3.08;;
24145;SDS011;12308;50.948;4.706;2022-09-20T14:20:30;10.38;;;2.88;;
24145;SDS011;12308;50.948;4.706;2022-09-20T14:22:56;11.18;;;2.65;;
24145;SDS011;12308;50.948;4.706;2022-09-20T14:25:23;13.52;;;3.10;;
24145;SDS011;12308;50.948;4.706;2022-09-20T14:28:06;10.18;;;3.17;;
24145;SDS011;12308;50.948;4.706;2022-09-20T14:30:43;6.38;;;2.50;;
24145;SDS011;12308;50.948;4.706;2022-09-20T14:33:14;6.82;;;2.28;;
24145;SDS011;12308;50.948;4.706;2022-09-20T14:35:49;10.45;;;2.47;;
24145;SDS011;12308;50.948;4.706;2022-09-20T14:38:21;8.32;;;2.58;;
24145;SDS011;12308;50.948;4.706;2022-09-20T14:40:50;10.93;;;2.83;;
24145;SDS011;12308;50.948;4.706;2022-09-20T14:43:20;7.88;;;2.47;;
24145;SDS011;12308;50.948;4.706;2022-09-20T14:45:50;8.38;;;1.90;;
24145;SDS011;12308;50.948;4.706;2022-09-20T14:50:46;5.10;;;1.65;;
24145;SDS011;12308;50.948;4.706;2022-09-20T14:53:40;11.23;;;1.65;;
24145;SDS011;12308;50.948;4.706;2022-09-20T14:56:11;10.05;;;1.90;;
24145;SDS011;12308;50.948;4.706;2022-09-20T15:01:29;5.05;;;1.50;;
24145;SDS011;12308;50.948;4.706;2022-09-20T15:03:56;6.85;;;1.35;;
24145;SDS011;12308;50.948;4.706;2022-09-20T15:06:22;7.13;;;1.60;;
24145;SDS011;12308;50.948;4.706;2022-09-20T15:08:48;6.53;;;1.60;;
24145;SDS011;12308;50.948;4.706;2022-09-20T15:11:15;11.88;;;1.80;;
24145;SDS011;12308;50.948;4.706;2022-09-20T15:13:41;6.18;;;1.33;;
24145;SDS011;12308;50.948;4.706;2022-09-20T15:16:07;5.30;;;1.40;;
24145;SDS011;12308;50.948;4.706;2022-09-20T15:18:37;5.50;;;1.58;;
24145;SDS011;12308;50.948;4.706;2022-09-20T15:21:05;11.32;;;1.80;;
24145;SDS011;12308;50.948;4.706;2022-09-20T15:23:31;10.23;;;1.65;;
24145;SDS011;12308;50.948;4.706;2022-09-20T15:25:57;9.55;;;1.70;;
24145;SDS011;12308;50.948;4.706;2022-09-20T15:28:24;6.57;;;1.48;;
24145;SDS011;12308;50.948;4.706;2022-09-20T15:30:50;7.05;;;1.60;;
24145;SDS011;12308;50.948;4.706;2022-09-20T15:33:17;2.58;;;1.17;;
24145;SDS011;12308;50.948;4.706;2022-09-20T15:35:44;9.02;;;1.50;;
24145;SDS011;12308;50.948;4.706;2022-09-20T15:38:11;9.55;;;1.52;;
24145;SDS011;12308;50.948;4.706;2022-09-20T15:40:41;10.45;;;1.40;;
24145;SDS011;12308;50.948;4.706;2022-09-20T15:43:11;7.13;;;1.83;;
24145;SDS011;12308;50.948;4.706;2022-09-20T15:46:23;3.53;;;1.40;;
24145;SDS011;12308;50.948;4.706;2022-09-20T15:48:45;8.30;;;1.65;;
24145;SDS011;12308;50.948;4.706;2022-09-20T15:51:11;14.05;;;2.42;;
24145;SDS011;12308;50.948;4.706;2022-09-20T15:54:01;11.10;;;2.00;;
24145;SDS011;12308;50.948;4.706;2022-09-20T15:56:27;10.75;;;1.98;;
24145;SDS011;12308;50.948;4.706;2022-09-20T15:58:55;7.00;;;1.70;;
24145;SDS011;12308;50.948;4.706;2022-09-20T16:01:29;7.15;;;1.73;;
24145;SDS011;12308;50.948;4.706;2022-09-20T16:04:07;5.72;;;1.98;;
24145;SDS011;12308;50.948;4.706;2022-09-20T16:06:44;9.32;;;1.75;;
24145;SDS011;12308;50.948;4.706;2022-09-20T16:09:12;9.20;;;2.00;;
24145;SDS011;12308;50.948;4.706;2022-09-20T16:11:38;8.88;;;2.10;;
24145;SDS011;12308;50.948;4.706;2022-09-20T16:14:03;8.52;;;2.05;;
24145;SDS011;12308;50.948;4.706;2022-09-20T16:16:30;9.68;;;2.25;;
24145;SDS011;12308;50.948;4.706;2022-09-20T16:18:57;8.68;;;2.50;;
24145;SDS011;12308;50.948;4.706;2022-09-20T16:21:42;9.25;;;2.55;;
24145;SDS011;12308;50.948;4.706;2022-09-20T16:24:11;11.52;;;2.58;;
24145;SDS011;12308;50.948;4.706;2022-09-20T16:26:38;7.15;;;2.95;;
24145;SDS011;12308;50.948;4.706;2022-09-20T16:29:04;9.30;;;2.85;;
24145;SDS011;12308;50.948;4.706;2022-09-20T16:31:34;12.65;;;2.88;;
24145;SDS011;12308;50.948;4.706;2022-09-20T16:34:01;11.32;;;2.88;;
24145;SDS011;12308;50.948;4.706;2022-09-20T16:36:29;9.00;;;2.80;;
24145;SDS011;12308;50.948;4.706;2022-09-20T16:38:56;8.30;;;3.35;;
24145;SDS011;12308;50.948;4.706;2022-09-20T16:41:22;11.30;;;2.92;;
24145;SDS011;12308;50.948;4.706;2022-09-20T16:43:50;8.10;;;2.80;;
24145;SDS011;12308;50.948;4.706;2022-09-20T16:46:19;13.18;;;3.13;;
24145;SDS011;12308;50.948;4.706;2022-09-20T16:48:51;9.90;;;3.83;;
24145;SDS011;12308;50.948;4.706;2022-09-20T16:51:21;9.50;;;5.97;;
24145;SDS011;12308;50.948;4.706;2022-09-20T16:53:51;13.20;;;6.55;;
24145;SDS011;12308;50.948;4.706;2022-09-20T16:58:50;9.63;;;5.20;;
24145;SDS011;12308;50.948;4.706;2022-09-20T17:01:16;16.20;;;5.43;;
24145;SDS011;12308;50.948;4.706;2022-09-20T17:03:42;11.73;;;5.70;;
24145;SDS011;12308;50.948;4.706;2022-09-20T17:06:09;63.13;;;29.73;;
24145;SDS011;12308;50.948;4.706;2022-09-20T17:08:35;22.80;;;9.70;;
24145;SDS011;12308;50.948;4.706;2022-09-20T17:11:09;9.90;;;5.25;;
24145;SDS011;12308;50.948;4.706;2022-09-20T17:13:38;21.35;;;9.02;;
24145;SDS011;12308;50.948;4.706;2022-09-20T17:16:06;16.15;;;5.97;;
24145;SDS011;12308;50.948;4.706;2022-09-20T17:18:34;14.50;;;4.90;;
24145;SDS011;12308;50.948;4.706;2022-09-20T17:21:07;11.65;;;4.25;;
24145;SDS011;12308;50.948;4.706;2022-09-20T17:23:34;8.85;;;3.70;;
24145;SDS011;12308;50.948;4.706;2022-09-20T17:26:01;11.15;;;4.60;;
24145;SDS011;12308;50.948;4.706;2022-09-20T17:28:37;10.23;;;4.55;;
24145;SDS011;12308;50.948;4.706;2022-09-20T17:31:04;13.60;;;4.32;;
24145;SDS011;12308;50.948;4.706;2022-09-20T17:33:31;8.75;;;3.72;;
24145;SDS011;12308;50.948;4.706;2022-09-20T17:35:58;15.75;;;4.75;;
24145;SDS011;12308;50.948;4.706;2022-09-20T17:38:26;16.13;;;5.50;;
24145;SDS011;12308;50.948;4.706;2022-09-20T17:41:05;14.98;;;5.00;;
24145;SDS011;12308;50.948;4.706;2022-09-20T17:43:36;16.15;;;5.50;;
24145;SDS011;12308;50.948;4.706;2022-09-20T17:46:23;13.90;;;4.30;;
24145;SDS011;12308;50.948;4.706;2022-09-20T17:49:00;9.30;;;3.92;;
24145;SDS011;12308;50.948;4.706;2022-09-20T17:51:29;11.65;;;3.42;;
24145;SDS011;12308;50.948;4.706;2022-09-20T17:53:56;14.48;;;4.32;;
24145;SDS011;12308;50.948;4.706;2022-09-20T17:56:23;16.25;;;5.22;;
24145;SDS011;12308;50.948;4.706;2022-09-20T17:58:53;13.15;;;4.05;;
24145;SDS011;12308;50.948;4.706;2022-09-20T18:01:23;16.17;;;3.97;;
24145;SDS011;12308;50.948;4.706;2022-09-20T18:03:50;12.50;;;4.28;;
24145;SDS011;12308;50.948;4.706;2022-09-20T18:06:18;9.13;;;4.22;;
24145;SDS011;12308;50.948;4.706;2022-09-20T18:08:49;14.68;;;4.32;;
24145;SDS011;12308;50.948;4.706;2022-09-20T18:11:30;11.88;;;4.57;;
24145;SDS011;12308;50.948;4.706;2022-09-20T18:16:24;10.70;;;4.43;;
24145;SDS011;12308;50.948;4.706;2022-09-20T18:18:50;11.18;;;5.47;;
24145;SDS011;12308;50.948;4.706;2022-09-20T18:21:16;11.32;;;4.07;;
24145;SDS011;12308;50.948;4.706;2022-09-20T18:23:44;12.35;;;3.67;;
24145;SDS011;12308;50.948;4.706;2022-09-20T18:26:12;12.07;;;4.30;;
24145;SDS011;12308;50.948;4.706;2022-09-20T18:28:55;12.35;;;4.32;;
24145;SDS011;12308;50.948;4.706;2022-09-20T18:31:40;10.82;;;4.40;;
24145;SDS011;12308;50.948;4.706;2022-09-20T18:34:09;11.38;;;4.15;;
24145;SDS011;12308;50.948;4.706;2022-09-20T18:36:37;14.55;;;4.70;;
24145;SDS011;12308;50.948;4.706;2022-09-20T18:39:03;13.30;;;4.85;;
24145;SDS011;12308;50.948;4.706;2022-09-20T18:41:31;12.98;;;5.38;;
24145;SDS011;12308;50.948;4.706;2022-09-20T18:43:59;9.98;;;4.95;;
24145;SDS011;12308;50.948;4.706;2022-09-20T18:46:27;13.15;;;5.38;;
24145;SDS011;12308;50.948;4.706;2022-09-20T18:48:55;11.70;;;6.55;;
24145;SDS011;12308;50.948;4.706;2022-09-20T18:51:24;10.15;;;5.57;;
24145;SDS011;12308;50.948;4.706;2022-09-20T18:53:53;15.10;;;5.80;;
24145;SDS011;12308;50.948;4.706;2022-09-20T18:58:54;10.23;;;4.63;;
24145;SDS011;12308;50.948;4.706;2022-09-20T19:06:52;8.93;;;4.80;;
24145;SDS011;12308;50.948;4.706;2022-09-20T19:09:36;16.75;;;5.15;;
24145;SDS011;12308;50.948;4.706;2022-09-20T19:12:28;10.48;;;5.75;;
24145;SDS011;12308;50.948;4.706;2022-09-20T19:18:01;12.43;;;4.85;;
24145;SDS011;12308;50.948;4.706;2022-09-20T19:20:42;12.25;;;6.10;;
24145;SDS011;12308;50.948;4.706;2022-09-20T19:26:20;13.02;;;5.40;;
24145;SDS011;12308;50.948;4.706;2022-09-20T19:28:50;17.30;;;5.90;;
24145;SDS011;12308;50.948;4.706;2022-09-20T19:31:22;12.35;;;5.70;;
24145;SDS011;12308;50.948;4.706;2022-09-20T19:33:54;20.65;;;5.90;;
24145;SDS011;12308;50.948;4.706;2022-09-20T19:36:25;14.73;;;5.93;;
24145;SDS011;12308;50.948;4.706;2022-09-20T19:42:19;15.13;;;6.18;;
24145;SDS011;12308;50.948;4.706;2022-09-20T19:47:54;13.27;;;5.68;;
24145;SDS011;12308;50.948;4.706;2022-09-20T19:53:11;17.40;;;6.57;;
24145;SDS011;12308;50.948;4.706;2022-09-20T19:55:38;16.48;;;6.28;;
24145;SDS011;12308;50.948;4.706;2022-09-20T19:58:10;13.55;;;5.45;;
24145;SDS011;12308;50.948;4.706;2022-09-20T20:00:36;13.95;;;7.05;;
24145;SDS011;12308;50.948;4.706;2022-09-20T20:03:02;12.13;;;5.63;;
24145;SDS011;12308;50.948;4.706;2022-09-20T20:05:28;18.17;;;6.78;;
24145;SDS011;12308;50.948;4.706;2022-09-20T20:16:23;11.10;;;7.55;;
24145;SDS011;12308;50.948;4.706;2022-09-20T20:21:47;13.15;;;6.65;;
24145;SDS011;12308;50.948;4.706;2022-09-20T20:24:38;13.68;;;7.30;;
24145;SDS011;12308;50.948;4.706;2022-09-20T20:27:11;9.45;;;6.63;;
24145;SDS011;12308;50.948;4.706;2022-09-20T20:29:36;16.88;;;7.22;;
24145;SDS011;12308;50.948;4.706;2022-09-20T20:32:02;15.02;;;7.18;;
24145;SDS011;12308;50.948;4.706;2022-09-20T20:34:28;13.68;;;6.38;;
24145;SDS011;12308;50.948;4.706;2022-09-20T20:36:54;14.77;;;7.43;;
24145;SDS011;12308;50.948;4.706;2022-09-20T20:39:25;14.48;;;6.95;;
24145;SDS011;12308;50.948;4.706;2022-09-20T20:41:53;13.70;;;7.13;;
24145;SDS011;12308;50.948;4.706;2022-09-20T20:44:19;14.65;;;7.55;;
24145;SDS011;12308;50.948;4.706;2022-09-20T20:46:48;14.40;;;6.93;;
24145;SDS011;12308;50.948;4.706;2022-09-20T20:49:14;17.38;;;7.47;;
24145;SDS011;12308;50.948;4.706;2022-09-20T20:51:40;13.75;;;7.32;;
24145;SDS011;12308;50.948;4.706;2022-09-20T20:54:06;15.30;;;6.95;;
24145;SDS011;12308;50.948;4.706;2022-09-20T20:56:32;11.25;;;6.85;;
24145;SDS011;12308;50.948;4.706;2022-09-20T20:58:57;18.45;;;7.00;;
24145;SDS011;12308;50.948;4.706;2022-09-20T21:01:27;10.52;;;6.78;;
24145;SDS011;12308;50.948;4.706;2022-09-20T21:03:55;14.43;;;6.40;;
24145;SDS011;12308;50.948;4.706;2022-09-20T21:06:22;14.90;;;6.70;;
24145;SDS011;12308;50.948;4.706;2022-09-20T21:08:52;16.92;;;7.05;;
24145;SDS011;12308;50.948;4.706;2022-09-20T21:11:18;14.77;;;8.27;;
24145;SDS011;12308;50.948;4.706;2022-09-20T21:16:19;14.02;;;5.93;;
24145;SDS011;12308;50.948;4.706;2022-09-20T21:18:47;15.63;;;6.50;;
24145;SDS011;12308;50.948;4.706;2022-09-20T21:23:43;13.38;;;6.57;;
24145;SDS011;12308;50.948;4.706;2022-09-20T21:26:11;14.68;;;7.03;;
24145;SDS011;12308;50.948;4.706;2022-09-20T21:28:40;12.35;;;7.20;;
24145;SDS011;12308;50.948;4.706;2022-09-20T21:31:07;9.98;;;6.65;;
24145;SDS011;12308;50.948;4.706;2022-09-20T21:33:36;16.35;;;6.85;;